Terminal Aerodrome Forecast
Issued by NWS

Home | Current Version | Previous Version | Text Only | Print | Product List | Glossary On
Versions: 1 2 3 4 5 6 7 8 9 10 11 12 13
000
FTUS41 KLWX 302300
TAFMTN
TAF
KMTN 302320Z 3100/3124 18004KT P6SM FEW250
     FM312100 17008KT P6SM FEW050 SCT120
      AMD NOT SKED 3102/3112=

USA.gov is the U.S. government's official web portal to all federal, state and local government web resources and services.